Time;durP1;ratioP1;P1;durP2;ratioP2;P2;SDS_P1;SDS_P2;PMS_P1;PMS_P2;Temp;Humidity;BMP_temperature;BMP_pressure;BME280_temperature;BME280_humidity;BME280_pressure;Samples;Min_cycle;Max_cycle;Signal;HPM_P1;HPM_P2
2022/04/08 00:02:09;;;;;;;1.88;1.20;;;10.70;99.90;;;;;;5009239;28;20273;-59
2022/04/08 00:04:59;;;;;;;5.65;1.60;;;10.70;99.90;;;;;;5008570;28;20320;-58
2022/04/08 00:07:48;;;;;;;2.50;1.73;;;10.70;99.90;;;;;;5023607;28;21017;-57
2022/04/08 00:10:37;;;;;;;3.05;1.30;;;10.70;99.90;;;;;;5026748;28;20466;-58
2022/04/08 00:13:25;;;;;;;4.95;1.50;;;10.70;99.90;;;;;;5017568;28;20245;-58
2022/04/08 00:16:15;;;;;;;3.20;1.40;;;10.60;99.90;;;;;;5028822;28;20577;-59
2022/04/08 00:19:04;;;;;;;3.55;1.60;;;10.60;99.90;;;;;;5026195;28;20240;-53
2022/04/08 00:21:53;;;;;;;3.20;1.50;;;10.60;99.90;;;;;;5021793;28;20233;-52
2022/04/08 00:24:41;;;;;;;1.98;1.50;;;10.60;99.90;;;;;;5011058;28;20473;-58
2022/04/08 00:27:30;;;;;;;4.20;1.70;;;10.60;99.90;;;;;;5013756;28;20308;-59
2022/04/08 00:30:18;;;;;;;2.80;1.70;;;10.60;99.90;;;;;;5000820;28;20291;-60
2022/04/08 00:33:11;;;;;;;3.10;1.70;;;10.60;99.90;;;;;;5001704;28;20218;-59
2022/04/08 00:36:01;;;;;;;2.08;1.35;;;10.60;99.90;;;;;;5010048;28;20286;-59
2022/04/08 00:38:49;;;;;;;3.65;1.50;;;10.60;99.90;;;;;;5015347;28;20233;-59
2022/04/08 00:41:38;;;;;;;2.20;1.40;;;10.60;99.90;;;;;;5015760;28;20225;-59
2022/04/08 00:44:29;;;;;;;4.10;1.60;;;10.40;99.90;;;;;;5020714;28;20228;-59
2022/04/08 00:47:17;;;;;;;2.95;1.30;;;10.50;99.90;;;;;;5008592;28;20232;-58
2022/04/08 00:50:08;;;;;;;2.80;1.40;;;10.50;99.90;;;;;;5019387;28;20328;-59
2022/04/08 00:52:58;;;;;;;3.38;1.50;;;10.50;99.90;;;;;;5018992;28;20221;-59
2022/04/08 00:55:47;;;;;;;1.65;1.10;;;10.50;99.90;;;;;;5024047;28;20222;-59
2022/04/08 00:58:37;;;;;;;3.30;1.40;;;10.40;99.90;;;;;;5023944;28;20229;-60
2022/04/08 01:01:26;;;;;;;5.78;1.50;;;10.40;99.90;;;;;;5020550;28;20824;-60
2022/04/08 01:04:15;;;;;;;2.10;1.27;;;10.50;99.90;;;;;;5020685;28;20740;-59
2022/04/08 01:07:05;;;;;;;2.30;1.30;;;10.50;99.90;;;;;;5025854;28;20232;-58
2022/04/08 01:09:55;;;;;;;2.80;1.50;;;10.40;99.90;;;;;;5017416;28;20225;-59
2022/04/08 01:12:43;;;;;;;2.83;1.48;;;10.40;99.90;;;;;;5022870;28;20287;-58
2022/04/08 01:15:32;;;;;;;2.80;1.48;;;10.40;99.90;;;;;;5013100;28;20256;-59
2022/04/08 01:18:21;;;;;;;2.42;1.33;;;10.30;99.90;;;;;;5018588;28;20565;-59
2022/04/08 01:21:09;;;;;;;2.55;1.42;;;10.30;99.90;;;;;;5018097;28;20236;-59
2022/04/08 01:24:00;;;;;;;2.85;1.65;;;10.30;99.90;;;;;;5024350;28;20708;-59
2022/04/08 01:26:53;;;;;;;5.18;1.65;;;10.30;99.90;;;;;;5005204;28;20229;-59
2022/04/08 01:29:41;;;;;;;1.70;1.50;;;10.30;99.90;;;;;;5017187;28;20244;-59
2022/04/08 01:32:30;;;;;;;3.10;1.50;;;10.30;99.90;;;;;;5021339;28;20581;-59
2022/04/08 01:35:22;;;;;;;2.80;1.73;;;10.20;99.90;;;;;;5012940;28;20225;-59
2022/04/08 01:38:10;;;;;;;2.00;1.33;;;10.20;99.90;;;;;;5013775;28;20221;-58
2022/04/08 01:40:59;;;;;;;3.47;1.40;;;10.20;99.90;;;;;;4997156;28;20229;-60
2022/04/08 01:43:49;;;;;;;2.83;1.40;;;10.20;99.90;;;;;;5025064;28;20238;-60
2022/04/08 01:46:37;;;;;;;3.00;1.27;;;10.20;99.90;;;;;;4999650;28;20222;-59
2022/04/08 01:49:26;;;;;;;2.90;1.50;;;10.20;99.90;;;;;;5020517;28;20250;-59
2022/04/08 01:52:15;;;;;;;3.83;1.67;;;10.20;99.90;;;;;;5003754;28;20222;-60
2022/04/08 01:55:05;;;;;;;2.17;1.38;;;10.20;99.90;;;;;;5020436;28;20229;-59
2022/04/08 01:57:54;;;;;;;4.28;1.60;;;10.10;99.90;;;;;;5015883;28;20233;-60
2022/04/08 02:00:43;;;;;;;4.13;1.58;;;10.20;99.90;;;;;;5018308;28;20244;-59
2022/04/08 02:03:33;;;;;;;3.50;1.52;;;10.20;99.90;;;;;;5018624;28;20221;-59
2022/04/08 02:06:21;;;;;;;7.22;1.77;;;10.10;99.90;;;;;;5017783;28;20226;-59
2022/04/08 02:09:13;;;;;;;2.30;1.60;;;10.10;99.90;;;;;;5014582;28;20236;-59
2022/04/08 02:12:05;;;;;;;1.85;1.40;;;10.20;99.90;;;;;;5025637;28;20230;-60
2022/04/08 02:14:55;;;;;;;4.50;1.45;;;10.10;99.90;;;;;;5016693;28;20225;-60
2022/04/08 02:17:48;;;;;;;4.60;1.50;;;10.10;99.90;;;;;;5013317;28;20230;-60
2022/04/08 02:20:37;;;;;;;4.90;1.85;;;10.10;99.90;;;;;;5007416;28;20238;-60
2022/04/08 02:23:25;;;;;;;4.18;1.65;;;10.00;99.90;;;;;;5015590;28;20233;-59
2022/04/08 02:26:16;;;;;;;6.43;2.10;;;10.10;99.90;;;;;;5007053;28;20228;-59
2022/04/08 02:29:04;;;;;;;5.82;1.55;;;10.10;99.90;;;;;;5012452;28;20225;-59
2022/04/08 02:31:54;;;;;;;3.90;1.60;;;10.00;99.90;;;;;;5001089;28;20221;-59
2022/04/08 02:34:44;;;;;;;5.77;1.90;;;10.10;99.90;;;;;;5010021;28;20241;-59
2022/04/08 02:37:33;;;;;;;6.80;1.80;;;10.10;99.90;;;;;;5019564;28;20249;-58
2022/04/08 02:40:21;;;;;;;4.68;1.83;;;10.10;99.90;;;;;;5007074;28;20228;-58
2022/04/08 02:43:10;;;;;;;5.37;2.13;;;10.00;99.90;;;;;;5005911;28;20221;-59
2022/04/08 02:45:59;;;;;;;5.20;1.57;;;10.00;99.90;;;;;;5000761;28;20221;-58
2022/04/08 02:48:47;;;;;;;4.07;1.30;;;10.00;99.90;;;;;;5004685;28;20663;-58
2022/04/08 02:51:37;;;;;;;2.63;1.50;;;9.90;99.90;;;;;;5009508;28;20225;-59
2022/04/08 02:54:26;;;;;;;5.30;3.03;;;9.90;99.90;;;;;;5012739;28;20230;-59
2022/04/08 02:57:14;;;;;;;2.80;1.30;;;10.00;99.90;;;;;;5002769;28;20227;-58
2022/04/08 03:00:04;;;;;;;2.90;1.60;;;10.00;99.90;;;;;;5003362;28;20239;-59
2022/04/08 03:02:52;;;;;;;5.33;1.63;;;10.00;99.90;;;;;;5018655;28;20251;-59
2022/04/08 03:05:41;;;;;;;5.85;1.60;;;10.00;99.90;;;;;;5013091;28;20239;-59
2022/04/08 03:08:31;;;;;;;4.70;1.30;;;10.00;99.90;;;;;;5014246;28;20227;-59
2022/04/08 03:11:19;;;;;;;5.30;1.80;;;10.00;99.90;;;;;;5011431;28;20229;-60
2022/04/08 03:14:08;;;;;;;5.17;1.60;;;10.10;99.90;;;;;;5006047;28;20849;-59
2022/04/08 03:16:56;;;;;;;3.83;1.60;;;10.00;99.90;;;;;;5013109;28;20228;-59
2022/04/08 03:19:45;;;;;;;5.63;1.83;;;10.00;99.90;;;;;;5018683;28;20922;-59
2022/04/08 03:22:34;;;;;;;4.17;1.40;;;10.00;99.90;;;;;;5005900;28;20263;-58
2022/04/08 03:25:24;;;;;;;6.00;1.53;;;9.90;99.90;;;;;;5014289;28;20550;-59
2022/04/08 03:28:12;;;;;;;5.68;1.40;;;9.90;99.90;;;;;;5004968;28;20247;-58
2022/04/08 03:31:01;;;;;;;6.33;1.60;;;9.90;99.90;;;;;;5017129;28;20244;-57
2022/04/08 03:33:49;;;;;;;4.90;1.57;;;10.00;99.90;;;;;;5009147;28;20303;-59
2022/04/08 03:36:38;;;;;;;8.53;2.03;;;9.90;99.90;;;;;;5010785;28;20232;-59
2022/04/08 03:39:27;;;;;;;3.93;1.43;;;9.90;99.90;;;;;;5024414;28;20231;-59
2022/04/08 03:42:20;;;;;;;3.38;1.50;;;9.90;99.90;;;;;;5004590;28;20742;-59
2022/04/08 03:45:09;;;;;;;4.30;1.50;;;9.90;99.90;;;;;;5017243;28;20227;-59
2022/04/08 03:47:57;;;;;;;2.30;1.33;;;9.90;99.90;;;;;;5007438;28;20831;-59
2022/04/08 03:50:49;;;;;;;3.60;1.40;;;9.90;99.90;;;;;;5020569;28;20232;-59
2022/04/08 03:53:38;;;;;;;6.87;1.90;;;9.90;99.90;;;;;;5022433;28;20224;-61
2022/04/08 03:56:27;;;;;;;4.37;1.60;;;9.90;99.90;;;;;;5019967;28;20233;-58
2022/04/08 03:59:17;;;;;;;6.17;1.77;;;9.90;99.90;;;;;;5022574;28;20222;-59
2022/04/08 04:02:07;;;;;;;5.53;1.80;;;9.90;99.90;;;;;;4995709;28;20504;-60
2022/04/08 04:04:59;;;;;;;5.27;1.57;;;9.90;99.90;;;;;;5003541;28;20414;-61
2022/04/08 04:07:48;;;;;;;5.60;1.50;;;9.80;99.90;;;;;;5017058;28;20224;-59
2022/04/08 04:10:37;;;;;;;7.87;1.77;;;9.80;99.90;;;;;;5017722;28;20235;-59
2022/04/08 04:13:25;;;;;;;8.67;1.83;;;9.70;99.90;;;;;;5023802;28;20232;-58
2022/04/08 04:16:16;;;;;;;5.67;1.90;;;9.70;99.90;;;;;;5021087;28;20279;-58
2022/04/08 04:19:04;;;;;;;5.03;1.98;;;9.50;99.90;;;;;;5025655;28;20271;-59
2022/04/08 04:21:53;;;;;;;4.67;1.70;;;9.50;99.90;;;;;;5016150;28;20709;-58
2022/04/08 04:24:41;;;;;;;5.07;1.77;;;9.50;99.90;;;;;;5020431;28;20231;-58
2022/04/08 04:27:30;;;;;;;2.77;1.57;;;9.50;99.90;;;;;;5014387;28;20224;-59
2022/04/08 04:30:18;;;;;;;3.60;1.53;;;9.50;99.90;;;;;;5032631;28;20232;-59
2022/04/08 04:33:09;;;;;;;4.20;1.37;;;9.40;99.90;;;;;;5019696;28;20310;-59
2022/04/08 04:35:57;;;;;;;5.30;1.60;;;9.40;99.90;;;;;;5007234;28;20339;-59
2022/04/08 04:38:46;;;;;;;7.30;1.90;;;9.40;99.90;;;;;;5018677;28;24145;-58
2022/04/08 04:41:35;;;;;;;3.80;1.53;;;9.40;99.90;;;;;;5012333;28;20239;-59
2022/04/08 04:44:24;;;;;;;4.38;1.55;;;9.40;99.90;;;;;;5004935;28;20328;-58
2022/04/08 04:47:13;;;;;;;3.97;1.57;;;9.40;99.90;;;;;;5021654;28;20562;-58
2022/04/08 04:50:03;;;;;;;6.93;2.00;;;9.40;99.90;;;;;;5016781;28;20237;-60
2022/04/08 04:52:52;;;;;;;5.10;1.70;;;9.40;99.90;;;;;;5022249;28;20235;-63
2022/04/08 04:55:40;;;;;;;2.80;1.60;;;9.40;99.90;;;;;;5006309;28;20228;-61
2022/04/08 04:58:29;;;;;;;6.33;1.80;;;9.40;99.90;;;;;;5008595;28;20247;-59
2022/04/08 05:01:21;;;;;;;7.83;1.60;;;9.50;99.90;;;;;;5002623;28;20231;-59
2022/04/08 05:04:10;;;;;;;7.50;1.70;;;9.50;99.90;;;;;;5014395;28;20235;-60
2022/04/08 05:07:00;;;;;;;3.97;1.40;;;9.50;99.90;;;;;;5011447;28;20305;-60
2022/04/08 05:09:48;;;;;;;4.83;1.40;;;9.50;99.90;;;;;;5017349;28;20249;-59
2022/04/08 05:12:37;;;;;;;4.67;1.57;;;9.40;99.90;;;;;;5019483;28;20216;-59
2022/04/08 05:15:27;;;;;;;5.87;2.20;;;9.50;99.90;;;;;;5023549;28;20266;-56
2022/04/08 05:18:15;;;;;;;7.27;2.03;;;9.40;99.90;;;;;;5013778;28;20230;-58
2022/04/08 05:21:04;;;;;;;6.07;2.00;;;9.20;99.90;;;;;;5016091;28;20718;-59
2022/04/08 05:23:54;;;;;;;4.73;2.10;;;9.10;99.90;;;;;;5016376;28;20554;-59
2022/04/08 05:26:42;;;;;;;6.07;2.00;;;8.90;99.90;;;;;;5018733;28;20261;-59
2022/04/08 05:29:31;;;;;;;6.47;2.00;;;8.80;99.90;;;;;;5015584;28;20246;-59
2022/04/08 05:32:20;;;;;;;4.80;1.90;;;8.80;99.90;;;;;;5004184;28;20236;-58
2022/04/08 05:35:09;;;;;;;8.10;2.03;;;8.80;99.90;;;;;;5004336;28;20242;-59
2022/04/08 05:37:57;;;;;;;4.83;1.63;;;9.00;99.90;;;;;;5012885;28;20712;-58
2022/04/08 05:40:49;;;;;;;4.17;1.50;;;9.10;99.90;;;;;;5017993;28;20233;-58
2022/04/08 05:43:44;;;;;;;6.80;2.20;;;9.20;99.90;;;;;;5023540;28;20227;-57
2022/04/08 05:46:32;;;;;;;4.57;1.70;;;9.20;99.90;;;;;;5015292;28;20242;-59
2022/04/08 05:49:25;;;;;;;5.30;1.93;;;9.30;99.90;;;;;;5014080;28;20231;-59
2022/04/08 05:52:14;;;;;;;7.00;1.80;;;9.30;99.90;;;;;;5019351;28;20227;-59
2022/04/08 05:55:02;;;;;;;3.80;1.53;;;9.30;99.90;;;;;;5018505;28;20815;-59
2022/04/08 05:57:55;;;;;;;3.00;1.67;;;9.40;99.90;;;;;;5016015;28;20746;-59
2022/04/08 06:00:48;;;;;;;5.23;1.90;;;9.50;99.90;;;;;;5021347;28;20235;-59
2022/04/08 06:03:36;;;;;;;5.13;1.70;;;9.50;99.90;;;;;;5026361;28;20486;-58
2022/04/08 06:06:25;;;;;;;5.47;1.50;;;9.40;99.90;;;;;;5004632;28;20235;-60
2022/04/08 06:09:16;;;;;;;5.03;1.80;;;9.50;99.90;;;;;;5003640;28;20235;-59
2022/04/08 06:12:06;;;;;;;5.30;1.90;;;9.50;99.90;;;;;;5019295;28;20252;-58
2022/04/08 06:14:58;;;;;;;6.67;1.77;;;9.60;99.90;;;;;;5018009;28;20228;-60
2022/04/08 06:17:47;;;;;;;6.23;1.80;;;9.70;99.90;;;;;;5022107;28;20321;-58
2022/04/08 06:20:35;;;;;;;3.67;2.08;;;9.70;99.90;;;;;;5015782;28;20235;-59
2022/04/08 06:23:24;;;;;;;3.77;1.67;;;9.60;99.90;;;;;;5014529;28;20231;-59
2022/04/08 06:26:14;;;;;;;5.63;2.00;;;9.60;99.90;;;;;;5021504;28;20541;-61
2022/04/08 06:29:04;;;;;;;5.13;1.60;;;9.60;99.90;;;;;;5021772;28;20222;-59
2022/04/08 06:31:54;;;;;;;4.37;1.47;;;9.60;99.90;;;;;;5023380;28;20473;-59
2022/04/08 06:34:43;;;;;;;3.40;1.37;;;9.60;99.90;;;;;;5011112;28;20238;-57
2022/04/08 06:37:31;;;;;;;4.25;1.50;;;9.60;99.90;;;;;;5007446;28;20671;-57
2022/04/08 06:40:23;;;;;;;4.60;1.60;;;9.60;99.90;;;;;;5021188;28;20224;-50
2022/04/08 06:43:12;;;;;;;4.37;1.77;;;9.40;99.90;;;;;;5019402;28;20222;-58
2022/04/08 06:46:01;;;;;;;7.00;1.87;;;9.20;99.90;;;;;;5019461;28;20221;-57
2022/04/08 06:48:51;;;;;;;6.13;1.90;;;8.90;99.90;;;;;;5023074;28;20232;-59
2022/04/08 06:51:39;;;;;;;4.67;1.50;;;8.50;99.90;;;;;;5016672;28;20223;-58
2022/04/08 06:54:28;;;;;;;4.47;1.60;;;8.30;99.90;;;;;;5015149;28;20244;-57
2022/04/08 06:57:17;;;;;;;4.67;1.90;;;8.50;99.90;;;;;;5023877;28;20249;-58
2022/04/08 07:00:08;;;;;;;6.73;2.53;;;8.60;99.90;;;;;;4996574;28;20236;-56
2022/04/08 07:02:56;;;;;;;5.88;2.10;;;9.30;99.90;;;;;;5003917;28;20240;-60
2022/04/08 07:05:47;;;;;;;5.33;2.20;;;9.40;99.90;;;;;;5015658;28;20308;-58
2022/04/08 07:08:35;;;;;;;6.80;2.50;;;9.40;99.90;;;;;;5017373;28;20237;-58
2022/04/08 07:11:24;;;;;;;5.72;2.22;;;9.40;99.90;;;;;;5002636;28;20482;-58
2022/04/08 07:14:12;;;;;;;3.83;1.80;;;9.40;99.90;;;;;;5016807;28;20229;-60
2022/04/08 07:17:03;;;;;;;5.83;2.20;;;9.60;99.90;;;;;;5016392;28;20264;-58
2022/04/08 07:19:51;;;;;;;4.82;2.10;;;9.80;99.90;;;;;;5019380;28;20240;-58
2022/04/08 07:22:42;;;;;;;3.25;1.80;;;9.80;99.90;;;;;;5022177;28;20217;-58
2022/04/08 07:25:30;;;;;;;3.67;1.80;;;9.70;99.90;;;;;;4999874;28;20221;-57
2022/04/08 07:28:20;;;;;;;3.22;1.40;;;10.80;99.90;;;;;;5017243;28;20596;-60
2022/04/08 07:31:09;;;;;;;2.83;1.58;;;10.20;99.90;;;;;;5019933;28;20233;-60
2022/04/08 07:33:57;;;;;;;4.45;1.80;;;10.10;99.90;;;;;;5019612;28;20226;-58
2022/04/08 07:36:46;;;;;;;6.70;2.83;;;10.20;99.90;;;;;;5011322;28;20224;-59
2022/04/08 07:39:41;;;;;;;3.88;1.80;;;11.00;99.90;;;;;;5015773;28;20214;-59
2022/04/08 07:42:29;;;;;;;5.75;1.75;;;11.00;99.90;;;;;;5021255;28;20581;-59
2022/04/08 07:45:18;;;;;;;3.90;1.80;;;11.20;99.90;;;;;;5023481;28;20221;-58
2022/04/08 07:48:07;;;;;;;3.78;2.05;;;11.10;99.90;;;;;;5021305;28;20304;-59
2022/04/08 07:50:56;;;;;;;2.85;1.40;;;11.80;99.90;;;;;;5018088;28;20708;-59
2022/04/08 07:53:45;;;;;;;4.32;1.33;;;11.20;99.90;;;;;;5017787;28;20240;-59
2022/04/08 07:56:35;;;;;;;4.00;1.58;;;10.80;99.90;;;;;;5013865;28;20226;-58
2022/04/08 07:59:24;;;;;;;4.75;1.80;;;10.90;99.90;;;;;;5015566;28;20224;-59
2022/04/08 08:02:12;;;;;;;1.27;1.10;;;10.90;99.90;;;;;;5018002;28;20213;-57
2022/04/08 08:05:04;;;;;;;2.30;1.40;;;10.80;99.90;;;;;;5019797;28;20230;-59
2022/04/08 08:07:56;;;;;;;3.47;1.27;;;10.60;99.90;;;;;;5015117;28;20237;-60
2022/04/08 08:10:44;;;;;;;2.80;1.40;;;10.60;99.90;;;;;;5016783;28;20248;-59
2022/04/08 08:13:34;;;;;;;4.13;1.40;;;11.00;99.90;;;;;;5016036;28;20226;-58
2022/04/08 08:16:23;;;;;;;5.18;1.58;;;12.80;99.90;;;;;;4976294;28;20220;-63
2022/04/08 08:19:12;;;;;;;4.38;1.48;;;12.00;99.90;;;;;;4977951;28;20230;-59
2022/04/08 08:22:01;;;;;;;4.40;1.38;;;12.40;99.90;;;;;;4979566;28;20545;-60
2022/04/08 08:24:49;;;;;;;3.00;1.30;;;11.60;99.90;;;;;;4981949;28;20318;-60
2022/04/08 08:27:39;;;;;;;2.38;1.40;;;11.10;99.90;;;;;;4977964;28;20426;-57
2022/04/08 08:30:31;;;;;;;3.30;1.70;;;10.90;99.90;;;;;;4981308;28;20606;-58
2022/04/08 08:33:20;;;;;;;6.63;2.30;;;10.90;99.90;;;;;;4975797;28;20226;-58
2022/04/08 08:36:08;;;;;;;4.85;1.75;;;11.00;99.90;;;;;;4979926;28;20238;-58
2022/04/08 08:38:57;;;;;;;3.30;1.42;;;11.10;99.90;;;;;;4983276;28;20230;-57
2022/04/08 08:41:45;;;;;;;8.18;1.50;;;11.00;99.90;;;;;;4981491;28;20234;-58
2022/04/08 08:44:34;;;;;;;3.22;1.30;;;10.90;99.90;;;;;;4988447;28;20218;-59
2022/04/08 08:47:27;;;;;;;2.20;1.73;;;11.00;99.90;;;;;;4977425;28;20230;-58
2022/04/08 08:50:18;;;;;;;2.42;1.58;;;11.30;99.90;;;;;;4977448;28;20513;-58
2022/04/08 08:53:07;;;;;;;3.20;1.60;;;11.50;99.90;;;;;;4985035;28;20221;-59
2022/04/08 08:55:56;;;;;;;4.72;1.63;;;12.00;99.90;;;;;;4979772;28;20221;-61
2022/04/08 08:58:45;;;;;;;4.40;1.50;;;11.80;99.90;;;;;;4976576;28;20230;-59
2022/04/08 09:01:33;;;;;;;3.72;1.63;;;11.70;99.90;;;;;;4979212;28;20239;-57
2022/04/08 09:04:25;;;;;;;4.38;1.90;;;11.50;99.90;;;;;;4995356;28;20309;-59
2022/04/08 09:07:23;;;;;;;2.05;1.30;;;11.30;99.90;;;;;;4985169;28;20882;-57
2022/04/08 09:10:13;;;;;;;7.00;1.60;;;11.20;99.90;;;;;;4998459;28;20222;-59
2022/04/08 09:13:02;;;;;;;1.60;1.30;;;11.10;99.90;;;;;;4978803;28;20354;-59
2022/04/08 09:15:55;;;;;;;1.60;1.30;;;11.00;99.90;;;;;;5017863;28;20299;-59
2022/04/08 09:18:49;;;;;;;5.93;1.33;;;11.10;99.90;;;;;;5021385;28;20233;-59
2022/04/08 09:21:39;;;;;;;1.52;1.20;;;11.10;99.90;;;;;;5016202;28;20226;-59
2022/04/08 09:24:28;;;;;;;3.15;1.85;;;11.20;99.90;;;;;;5014431;28;20222;-60
2022/04/08 09:27:16;;;;;;;2.05;1.20;;;11.30;99.90;;;;;;5009807;28;20225;-59
2022/04/08 09:30:07;;;;;;;2.72;1.60;;;11.30;99.90;;;;;;5001510;28;20222;-60
2022/04/08 09:32:58;;;;;;;3.70;1.35;;;11.20;99.90;;;;;;5003601;28;20228;-59
2022/04/08 09:35:48;;;;;;;2.38;1.23;;;11.10;99.90;;;;;;5015083;28;20462;-59
2022/04/08 09:38:48;;;;;;;3.15;1.60;;;10.90;99.90;;;;;;5008087;28;21024;-58
2022/04/08 09:41:39;;;;;;;3.72;1.40;;;11.00;99.90;;;;;;5006432;28;20364;-60
2022/04/08 09:44:31;;;;;;;1.80;1.05;;;11.10;99.90;;;;;;5002525;28;20244;-60
2022/04/08 09:47:19;;;;;;;3.20;1.52;;;11.30;99.90;;;;;;5000629;28;20574;-60
2022/04/08 09:50:10;;;;;;;1.50;1.40;;;11.30;99.90;;;;;;5014152;28;20420;-59
2022/04/08 09:52:59;;;;;;;2.42;1.40;;;11.30;99.90;;;;;;5004489;28;20316;-59
2022/04/08 09:55:50;;;;;;;4.35;1.63;;;11.60;99.90;;;;;;5005263;28;20225;-59
2022/04/08 09:58:41;;;;;;;2.75;1.55;;;11.70;99.90;;;;;;5020717;28;20235;-60
2022/04/08 10:01:30;;;;;;;4.07;1.40;;;11.80;99.90;;;;;;5021267;28;20225;-58
2022/04/08 10:04:20;;;;;;;3.58;2.25;;;11.80;99.90;;;;;;4999678;28;20233;-58
2022/04/08 10:07:10;;;;;;;5.30;1.70;;;12.00;99.90;;;;;;5015114;28;20230;-63
2022/04/08 10:10:05;;;;;;;3.92;2.60;;;11.90;99.90;;;;;;5014343;28;20226;-60
2022/04/08 10:13:25;;;;;;;4.10;1.45;;;12.20;99.90;;;;;;5022880;28;20687;-60
2022/04/08 10:16:19;;;;;;;3.28;1.50;;;12.40;99.90;;;;;;5010255;28;20269;-61
2022/04/08 10:19:08;;;;;;;5.53;1.85;;;12.30;99.90;;;;;;5020189;28;20249;-60
2022/04/08 10:21:57;;;;;;;2.35;1.40;;;12.10;99.90;;;;;;5002942;28;20270;-58
2022/04/08 10:24:53;;;;;;;2.28;1.52;;;12.10;99.90;;;;;;5018084;28;20241;-60
2022/04/08 10:27:43;;;;;;;2.65;1.70;;;12.10;99.90;;;;;;5004168;28;20711;-59
2022/04/08 10:30:36;;;;;;;2.40;1.40;;;11.90;99.90;;;;;;5007732;28;20673;-59
2022/04/08 10:33:26;;;;;;;3.63;1.60;;;11.60;99.90;;;;;;5001337;28;20328;-56
2022/04/08 10:36:16;;;;;;;2.15;1.58;;;11.50;99.90;;;;;;5014880;28;20333;-60
2022/04/08 10:39:13;;;;;;;2.67;1.70;;;11.50;99.90;;;;;;5016683;28;21653;-63
2022/04/08 10:42:02;;;;;;;2.85;1.95;;;11.50;99.90;;;;;;5014580;28;20269;-58
2022/04/08 10:44:51;;;;;;;3.65;1.77;;;11.40;99.90;;;;;;5013969;28;20561;-56
2022/04/08 10:47:49;;;;;;;2.40;1.98;;;11.30;99.90;;;;;;5017214;28;20305;-55
2022/04/08 10:50:39;;;;;;;2.10;1.85;;;11.40;99.90;;;;;;5012058;28;20348;-55
2022/04/08 10:53:33;;;;;;;2.30;2.10;;;11.70;99.90;;;;;;5018988;28;20236;-56
2022/04/08 10:56:34;;;;;;;5.05;2.35;;;11.60;99.90;;;;;;5009676;28;20225;-57
2022/04/08 10:59:27;;;;;;;2.75;1.88;;;11.30;99.90;;;;;;5002664;28;20758;-57
2022/04/08 11:02:16;;;;;;;6.13;1.92;;;11.70;99.90;;;;;;5016508;28;20222;-55
2022/04/08 11:05:09;;;;;;;2.92;1.90;;;12.10;99.90;;;;;;5017239;28;20283;-56
2022/04/08 11:08:00;;;;;;;3.45;1.90;;;11.90;99.90;;;;;;5015567;28;20226;-56
2022/04/08 11:10:56;;;;;;;3.33;1.60;;;11.50;99.90;;;;;;4999998;28;20217;-56
2022/04/08 11:13:55;;;;;;;3.40;1.73;;;10.80;99.90;;;;;;5000270;28;20704;-59
2022/04/08 11:16:43;;;;;;;2.97;1.48;;;10.60;99.90;;;;;;5014744;28;20320;-60
2022/04/08 11:19:32;;;;;;;3.08;1.13;;;10.10;99.90;;;;;;5012462;28;20598;-61
2022/04/08 12:11:30;;;;;;;5.00;1.90;;;10.30;99.90;;;;;;5058041;27;20618;-63
2022/04/08 12:14:20;;;;;;;2.05;1.48;;;10.50;99.90;;;;;;5083355;28;20211;-61
2022/04/08 12:17:09;;;;;;;2.40;1.67;;;10.40;99.90;;;;;;5088358;28;20248;-61
2022/04/08 12:19:57;;;;;;;3.10;1.70;;;10.50;99.90;;;;;;5070780;28;20239;-62
2022/04/08 12:22:47;;;;;;;3.42;1.90;;;10.60;99.90;;;;;;5075793;28;20262;-59
2022/04/08 12:25:37;;;;;;;2.97;1.90;;;10.60;99.90;;;;;;5074012;28;20230;-59
2022/04/08 12:28:35;;;;;;;2.50;1.70;;;10.70;99.90;;;;;;5079484;28;20211;-59
2022/04/08 12:31:26;;;;;;;4.15;1.50;;;10.80;99.90;;;;;;5090724;28;20228;-60
2022/04/08 12:34:15;;;;;;;1.63;1.52;;;10.90;99.90;;;;;;5076018;28;20215;-58
2022/04/08 12:37:04;;;;;;;4.47;1.75;;;11.00;99.90;;;;;;5074266;28;20263;-54
2022/04/08 12:39:53;;;;;;;4.47;1.75;;;11.10;99.90;;;;;;5065612;28;20211;-60
2022/04/08 12:42:42;;;;;;;1.77;1.63;;;11.10;99.90;;;;;;5092850;27;20227;-60
2022/04/08 12:45:32;;;;;;;1.73;1.60;;;11.20;99.90;;;;;;5072828;28;20228;-60
2022/04/08 12:48:21;;;;;;;3.42;2.05;;;11.10;99.90;;;;;;5088838;28;20226;-60
2022/04/08 12:51:09;;;;;;;3.10;1.95;;;10.80;99.90;;;;;;5099657;28;20222;-61
2022/04/08 12:53:58;;;;;;;3.03;2.42;;;10.80;99.90;;;;;;5111743;27;20381;-55
2022/04/08 12:56:47;;;;;;;2.83;2.00;;;10.90;99.90;;;;;;5087114;28;20274;-60
2022/04/08 12:59:35;;;;;;;3.45;2.28;;;10.90;99.90;;;;;;5094082;28;20222;-59
2022/04/08 13:02:25;;;;;;;4.20;2.25;;;10.80;99.90;;;;;;5093240;28;20220;-59
2022/04/08 13:05:14;;;;;;;2.47;1.65;;;11.00;99.90;;;;;;5075064;28;20867;-58
2022/04/08 13:08:03;;;;;;;2.92;2.00;;;11.00;99.90;;;;;;5081202;28;20725;-59
2022/04/08 13:10:52;;;;;;;4.20;2.20;;;11.10;99.90;;;;;;5086937;28;20227;-59
2022/04/08 13:13:41;;;;;;;2.67;1.90;;;11.20;99.90;;;;;;5093116;28;20874;-58
2022/04/08 13:16:29;;;;;;;5.20;2.08;;;11.40;99.90;;;;;;5091147;28;20223;-59
2022/04/08 13:19:19;;;;;;;2.10;1.88;;;11.30;99.90;;;;;;5078233;28;20238;-60
2022/04/08 13:22:08;;;;;;;2.72;1.90;;;11.40;99.90;;;;;;5080225;28;20216;-57
2022/04/08 13:24:59;;;;;;;4.60;2.42;;;11.30;99.90;;;;;;5079735;28;20239;-57
2022/04/08 13:27:48;;;;;;;3.13;2.00;;;11.40;99.90;;;;;;5069849;28;20219;-58
2022/04/08 13:30:42;;;;;;;2.35;1.70;;;11.40;99.90;;;;;;5057495;28;20319;-59
2022/04/08 13:33:31;;;;;;;3.55;1.75;;;11.40;99.90;;;;;;5062307;28;20216;-58
2022/04/08 13:36:21;;;;;;;1.90;1.60;;;11.30;99.90;;;;;;5049179;28;20220;-62
2022/04/08 13:39:09;;;;;;;1.77;1.58;;;11.30;99.90;;;;;;5063714;28;20223;-59
2022/04/08 13:41:58;;;;;;;1.80;1.50;;;11.40;99.90;;;;;;5082999;28;20233;-57
2022/04/08 13:44:47;;;;;;;2.72;1.50;;;11.20;99.90;;;;;;5049868;28;20220;-58
2022/04/08 13:47:36;;;;;;;3.55;1.42;;;11.20;99.90;;;;;;5078390;28;20666;-58
2022/04/08 13:50:24;;;;;;;2.67;1.60;;;11.20;99.90;;;;;;5081919;28;20728;-55
2022/04/08 13:53:14;;;;;;;3.17;1.70;;;11.20;99.90;;;;;;5080171;28;20228;-60
2022/04/08 13:56:03;;;;;;;4.57;1.83;;;10.90;99.90;;;;;;5072918;28;20231;-59
2022/04/08 13:58:52;;;;;;;3.38;2.00;;;10.50;99.90;;;;;;5069184;28;20230;-59
2022/04/08 14:01:40;;;;;;;2.83;1.50;;;10.30;99.90;;;;;;5079534;28;20231;-58
2022/04/08 14:04:29;;;;;;;4.82;2.65;;;10.30;99.90;;;;;;5081448;28;20216;-57
2022/04/08 14:07:19;;;;;;;8.32;4.25;;;9.90;99.90;;;;;;5098196;27;20343;-58
2022/04/08 14:10:10;;;;;;;4.05;1.55;;;9.20;99.90;;;;;;5081521;28;20227;-57
2022/04/08 14:13:03;;;;;;;4.13;1.50;;;8.70;99.90;;;;;;5071332;28;20215;-59
2022/04/08 14:15:52;;;;;;;2.55;1.50;;;8.80;99.90;;;;;;5080917;28;20226;-58
2022/04/08 14:18:41;;;;;;;2.92;1.60;;;8.60;99.90;;;;;;5079292;28;20219;-57
2022/04/08 14:21:30;;;;;;;1.97;1.40;;;8.60;99.90;;;;;;5066061;28;20233;-58
2022/04/08 14:24:18;;;;;;;2.00;1.50;;;8.40;99.90;;;;;;5079570;28;20218;-58
2022/04/08 17:13:36;;;;;;;6.77;2.77;;;8.20;99.90;;;;;;5084340;27;20534;-59
2022/04/08 17:16:44;;;;;;;6.67;2.80;;;8.10;99.90;;;;;;5076571;28;20310;-59
2022/04/08 17:19:33;;;;;;;5.37;2.80;;;8.00;99.90;;;;;;5072120;28;20240;-59
2022/04/08 17:22:22;;;;;;;7.83;3.17;;;8.20;99.90;;;;;;5069630;28;20502;-58
2022/04/08 17:25:10;;;;;;;7.00;3.70;;;8.10;99.90;;;;;;5076907;28;20225;-59
2022/04/08 17:27:59;;;;;;;7.50;3.60;;;8.10;99.90;;;;;;5084914;28;20298;-59
2022/04/08 17:30:49;;;;;;;6.57;3.50;;;8.20;99.90;;;;;;5075376;28;20235;-58
2022/04/08 17:33:38;;;;;;;8.20;3.97;;;8.10;99.90;;;;;;5067542;28;20218;-61
2022/04/08 17:36:27;;;;;;;6.80;3.40;;;8.20;99.90;;;;;;5093055;28;20741;-61
2022/04/08 17:39:16;;;;;;;6.83;3.90;;;8.30;99.90;;;;;;5097552;28;20231;-61
2022/04/08 17:42:07;;;;;;;10.63;3.57;;;8.30;99.90;;;;;;5084249;28;20324;-59
2022/04/08 17:44:57;;;;;;;6.77;3.73;;;8.30;99.90;;;;;;5097680;28;20233;-60
2022/04/08 17:47:49;;;;;;;5.57;3.10;;;8.40;99.90;;;;;;5075247;28;20719;-62
2022/04/08 17:50:38;;;;;;;6.87;3.60;;;8.40;99.90;;;;;;5090455;28;20836;-60
2022/04/08 17:53:33;;;;;;;6.63;3.40;;;8.30;99.90;;;;;;5098296;28;20233;-60
2022/04/08 17:56:22;;;;;;;6.03;3.37;;;8.30;99.90;;;;;;5093596;28;20212;-60
2022/04/08 17:59:12;;;;;;;7.00;3.60;;;8.30;99.90;;;;;;5091422;28;20239;-59
2022/04/08 18:02:01;;;;;;;9.90;3.50;;;8.30;99.90;;;;;;5095400;28;20208;-61
2022/04/08 18:04:51;;;;;;;9.83;4.30;;;8.30;99.90;;;;;;5091157;27;20383;-60
2022/04/08 18:07:40;;;;;;;8.33;4.67;;;8.30;99.90;;;;;;5094334;28;20219;-60
2022/04/08 18:10:32;;;;;;;7.93;4.07;;;8.20;99.90;;;;;;5083737;28;20693;-60
2022/04/08 18:13:21;;;;;;;6.77;4.23;;;8.10;99.90;;;;;;5089121;28;20233;-61
2022/04/08 18:16:09;;;;;;;7.50;4.13;;;8.10;99.90;;;;;;5094432;28;20231;-58
2022/04/08 18:18:59;;;;;;;10.17;4.33;;;8.10;99.90;;;;;;5095328;28;20224;-59
2022/04/08 18:21:49;;;;;;;8.73;4.43;;;8.10;99.90;;;;;;5072658;28;20224;-60
2022/04/08 18:24:38;;;;;;;8.17;4.50;;;8.00;99.90;;;;;;5087958;28;20241;-60